sensor_id;sensor_type;location;lat;lon;timestamp;temperature;humidity
40589;DHT22;26297;49.450;6.640;2022-08-23T04:03:37;19.50;99.90
40589;DHT22;26297;49.450;6.640;2022-08-23T04:06:40;19.50;99.90
40589;DHT22;26297;49.450;6.640;2022-08-23T04:09:43;19.50;99.90
40589;DHT22;26297;49.450;6.640;2022-08-23T04:12:47;19.50;99.90
40589;DHT22;26297;49.450;6.640;2022-08-23T04:15:50;19.40;99.90
40589;DHT22;26297;49.450;6.640;2022-08-23T04:18:53;19.40;99.90
40589;DHT22;26297;49.450;6.640;2022-08-23T04:21:56;19.40;99.90
40589;DHT22;26297;49.450;6.640;2022-08-23T04:24:59;19.40;99.90
40589;DHT22;26297;49.450;6.640;2022-08-23T04:28:05;19.30;99.90
40589;DHT22;26297;49.450;6.640;2022-08-23T04:31:08;19.30;99.90
40589;DHT22;26297;49.450;6.640;2022-08-23T04:34:12;19.30;99.90
40589;DHT22;26297;49.450;6.640;2022-08-23T04:37:15;19.30;99.90
40589;DHT22;26297;49.450;6.640;2022-08-23T04:40:19;19.40;99.90
40589;DHT22;26297;49.450;6.640;2022-08-23T04:43:42;19.30;99.90
40589;DHT22;26297;49.450;6.640;2022-08-23T04:46:48;19.30;99.90
40589;DHT22;26297;49.450;6.640;2022-08-23T04:49:52;19.40;99.90
40589;DHT22;26297;49.450;6.640;2022-08-23T04:52:55;19.40;99.90
40589;DHT22;26297;49.450;6.640;2022-08-23T04:55:58;19.50;99.90
40589;DHT22;26297;49.450;6.640;2022-08-23T04:59:02;19.50;99.90
40589;DHT22;26297;49.450;6.640;2022-08-23T05:02:05;19.50;99.90
40589;DHT22;26297;49.450;6.640;2022-08-23T05:05:09;19.60;99.90
40589;DHT22;26297;49.450;6.640;2022-08-23T05:08:13;19.50;99.90
40589;DHT22;26297;49.450;6.640;2022-08-23T05:11:16;19.40;99.90
40589;DHT22;26297;49.450;6.640;2022-08-23T05:14:21;19.50;99.90
40589;DHT22;26297;49.450;6.640;2022-08-23T05:17:24;19.50;99.90
40589;DHT22;26297;49.450;6.640;2022-08-23T05:20:27;19.40;99.90
40589;DHT22;26297;49.450;6.640;2022-08-23T05:23:30;19.40;99.90
40589;DHT22;26297;49.450;6.640;2022-08-23T05:26:33;19.40;99.90
40589;DHT22;26297;49.450;6.640;2022-08-23T05:29:36;19.30;99.90
40589;DHT22;26297;49.450;6.640;2022-08-23T05:32:40;19.40;99.90
40589;DHT22;26297;49.450;6.640;2022-08-23T05:35:43;19.50;99.90
40589;DHT22;26297;49.450;6.640;2022-08-23T05:38:47;19.40;99.90
40589;DHT22;26297;49.450;6.640;2022-08-23T05:41:51;19.40;99.90
40589;DHT22;26297;49.450;6.640;2022-08-23T05:44:55;19.40;99.90
40589;DHT22;26297;49.450;6.640;2022-08-23T05:47:59;19.40;99.90
40589;DHT22;26297;49.450;6.640;2022-08-23T05:51:15;19.40;99.90
40589;DHT22;26297;49.450;6.640;2022-08-23T05:54:18;19.30;99.90
40589;DHT22;26297;49.450;6.640;2022-08-23T05:57:22;19.40;99.90
40589;DHT22;26297;49.450;6.640;2022-08-23T06:00:25;19.40;99.90
40589;DHT22;26297;49.450;6.640;2022-08-23T06:03:29;19.50;99.90
40589;DHT22;26297;49.450;6.640;2022-08-23T06:06:33;19.50;99.90
40589;DHT22;26297;49.450;6.640;2022-08-23T06:09:36;19.50;99.90
40589;DHT22;26297;49.450;6.640;2022-08-23T06:12:40;19.60;99.90
40589;DHT22;26297;49.450;6.640;2022-08-23T06:15:43;19.50;99.90
40589;DHT22;26297;49.450;6.640;2022-08-23T06:18:50;19.60;99.90
40589;DHT22;26297;49.450;6.640;2022-08-23T06:21:54;19.60;99.90
40589;DHT22;26297;49.450;6.640;2022-08-23T06:24:57;19.60;99.90
40589;DHT22;26297;49.450;6.640;2022-08-23T06:28:00;19.70;99.90
40589;DHT22;26297;49.450;6.640;2022-08-23T06:31:03;19.60;99.90
40589;DHT22;26297;49.450;6.640;2022-08-23T06:34:07;19.70;99.90
40589;DHT22;26297;49.450;6.640;2022-08-23T06:37:13;19.70;99.90
40589;DHT22;26297;49.450;6.640;2022-08-23T06:40:16;19.70;99.90
40589;DHT22;26297;49.450;6.640;2022-08-23T06:43:19;19.80;99.90
40589;DHT22;26297;49.450;6.640;2022-08-23T06:46:25;19.80;99.90
40589;DHT22;26297;49.450;6.640;2022-08-23T06:49:28;19.90;99.90
40589;DHT22;26297;49.450;6.640;2022-08-23T06:52:31;19.90;99.90
40589;DHT22;26297;49.450;6.640;2022-08-23T06:55:34;20.00;99.90
40589;DHT22;26297;49.450;6.640;2022-08-23T06:58:37;20.00;99.90
40589;DHT22;26297;49.450;6.640;2022-08-23T07:01:44;20.10;99.90
40589;DHT22;26297;49.450;6.640;2022-08-23T07:04:48;20.20;99.90
40589;DHT22;26297;49.450;6.640;2022-08-23T07:07:55;20.20;99.90
40589;DHT22;26297;49.450;6.640;2022-08-23T07:10:58;20.20;99.90
40589;DHT22;26297;49.450;6.640;2022-08-23T07:14:04;20.30;99.90
40589;DHT22;26297;49.450;6.640;2022-08-23T07:17:07;20.40;99.90
40589;DHT22;26297;49.450;6.640;2022-08-23T07:20:11;20.50;99.90
40589;DHT22;26297;49.450;6.640;2022-08-23T07:23:15;20.50;99.90
40589;DHT22;26297;49.450;6.640;2022-08-23T07:26:18;20.50;99.90
40589;DHT22;26297;49.450;6.640;2022-08-23T07:29:23;20.60;99.90
40589;DHT22;26297;49.450;6.640;2022-08-23T07:32:26;20.70;99.90
40589;DHT22;26297;49.450;6.640;2022-08-23T07:35:29;20.70;99.90
40589;DHT22;26297;49.450;6.640;2022-08-23T07:38:33;20.80;99.90
40589;DHT22;26297;49.450;6.640;2022-08-23T07:41:38;20.80;99.90
40589;DHT22;26297;49.450;6.640;2022-08-23T07:44:41;20.90;99.90
40589;DHT22;26297;49.450;6.640;2022-08-23T07:47:44;20.90;99.90
40589;DHT22;26297;49.450;6.640;2022-08-23T07:50:52;21.00;99.90
40589;DHT22;26297;49.450;6.640;2022-08-23T07:53:56;21.10;99.90
40589;DHT22;26297;49.450;6.640;2022-08-23T07:56:59;21.00;99.90
40589;DHT22;26297;49.450;6.640;2022-08-23T08:00:03;21.10;99.90
40589;DHT22;26297;49.450;6.640;2022-08-23T08:03:06;21.10;99.90
40589;DHT22;26297;49.450;6.640;2022-08-23T08:06:37;21.20;99.90
40589;DHT22;26297;49.450;6.640;2022-08-23T08:09:41;21.30;99.90
40589;DHT22;26297;49.450;6.640;2022-08-23T08:12:44;21.30;99.90
40589;DHT22;26297;49.450;6.640;2022-08-23T08:15:47;21.40;99.90
40589;DHT22;26297;49.450;6.640;2022-08-23T08:18:50;21.40;99.90
40589;DHT22;26297;49.450;6.640;2022-08-23T08:21:53;21.40;99.90
40589;DHT22;26297;49.450;6.640;2022-08-23T08:24:56;21.40;99.90
40589;DHT22;26297;49.450;6.640;2022-08-23T08:28:00;21.50;99.90
40589;DHT22;26297;49.450;6.640;2022-08-23T08:31:03;21.50;99.90
40589;DHT22;26297;49.450;6.640;2022-08-23T08:34:07;21.50;99.90
40589;DHT22;26297;49.450;6.640;2022-08-23T08:37:11;21.50;99.90
40589;DHT22;26297;49.450;6.640;2022-08-23T08:40:19;21.50;99.90
40589;DHT22;26297;49.450;6.640;2022-08-23T08:47:08;21.50;99.90
40589;DHT22;26297;49.450;6.640;2022-08-23T08:50:34;21.50;99.90
40589;DHT22;26297;49.450;6.640;2022-08-23T08:53:43;21.60;99.90
40589;DHT22;26297;49.450;6.640;2022-08-23T08:56:51;21.60;99.90
40589;DHT22;26297;49.450;6.640;2022-08-23T09:00:03;21.60;99.90
40589;DHT22;26297;49.450;6.640;2022-08-23T09:03:12;21.60;99.90
40589;DHT22;26297;49.450;6.640;2022-08-23T09:09:51;21.60;99.90
40589;DHT22;26297;49.450;6.640;2022-08-23T09:16:53;21.70;99.90
40589;DHT22;26297;49.450;6.640;2022-08-23T09:19:59;21.70;99.90
40589;DHT22;26297;49.450;6.640;2022-08-23T09:23:17;21.70;99.90
40589;DHT22;26297;49.450;6.640;2022-08-23T09:26:27;21.80;99.90
40589;DHT22;26297;49.450;6.640;2022-08-23T09:29:38;21.80;99.90
40589;DHT22;26297;49.450;6.640;2022-08-23T09:32:43;21.80;99.90
40589;DHT22;26297;49.450;6.640;2022-08-23T09:36:19;21.80;99.90
40589;DHT22;26297;49.450;6.640;2022-08-23T09:39:31;21.90;99.90
40589;DHT22;26297;49.450;6.640;2022-08-23T09:42:37;21.90;99.90
40589;DHT22;26297;49.450;6.640;2022-08-23T09:46:01;21.90;99.90
40589;DHT22;26297;49.450;6.640;2022-08-23T09:49:25;21.90;99.90
40589;DHT22;26297;49.450;6.640;2022-08-23T09:52:35;21.90;99.90
40589;DHT22;26297;49.450;6.640;2022-08-23T09:55:49;21.90;99.90
40589;DHT22;26297;49.450;6.640;2022-08-23T09:58:53;21.80;99.90
40589;DHT22;26297;49.450;6.640;2022-08-23T10:01:58;21.80;99.90
40589;DHT22;26297;49.450;6.640;2022-08-23T10:05:27;21.70;99.90
40589;DHT22;26297;49.450;6.640;2022-08-23T10:08:34;21.70;99.90
40589;DHT22;26297;49.450;6.640;2022-08-23T10:11:43;21.70;99.90
40589;DHT22;26297;49.450;6.640;2022-08-23T10:14:47;21.80;99.90
40589;DHT22;26297;49.450;6.640;2022-08-23T10:18:04;21.70;99.90
40589;DHT22;26297;49.450;6.640;2022-08-23T10:21:16;21.80;99.90
40589;DHT22;26297;49.450;6.640;2022-08-23T10:27:57;21.70;99.90
40589;DHT22;26297;49.450;6.640;2022-08-23T10:41:09;21.80;99.90
40589;DHT22;26297;49.450;6.640;2022-08-23T10:47:35;21.90;99.90
40589;DHT22;26297;49.450;6.640;2022-08-23T10:51:06;21.90;99.90
40589;DHT22;26297;49.450;6.640;2022-08-23T10:54:18;22.00;99.90
40589;DHT22;26297;49.450;6.640;2022-08-23T10:57:39;22.00;99.90
40589;DHT22;26297;49.450;6.640;2022-08-23T11:00:43;22.10;99.90
40589;DHT22;26297;49.450;6.640;2022-08-23T11:03:58;22.10;99.90
40589;DHT22;26297;49.450;6.640;2022-08-23T11:07:20;22.10;99.90
40589;DHT22;26297;49.450;6.640;2022-08-23T11:10:32;22.00;99.90
40589;DHT22;26297;49.450;6.640;2022-08-23T11:13:36;22.10;99.90
40589;DHT22;26297;49.450;6.640;2022-08-23T11:16:44;22.10;99.90
40589;DHT22;26297;49.450;6.640;2022-08-23T11:20:02;22.30;99.90
40589;DHT22;26297;49.450;6.640;2022-08-23T11:29:39;22.40;99.90
40589;DHT22;26297;49.450;6.640;2022-08-23T11:32:43;22.40;99.90
40589;DHT22;26297;49.450;6.640;2022-08-23T11:35:52;22.40;99.90
40589;DHT22;26297;49.450;6.640;2022-08-23T11:42:02;22.20;99.90
40589;DHT22;26297;49.450;6.640;2022-08-23T11:45:30;22.10;99.90
40589;DHT22;26297;49.450;6.640;2022-08-23T11:48:43;22.20;99.90
40589;DHT22;26297;49.450;6.640;2022-08-23T12:01:33;22.20;99.90
40589;DHT22;26297;49.450;6.640;2022-08-23T12:04:42;22.10;99.90
40589;DHT22;26297;49.450;6.640;2022-08-23T12:11:08;22.20;99.90
40589;DHT22;26297;49.450;6.640;2022-08-23T12:20:42;22.50;99.20
40589;DHT22;26297;49.450;6.640;2022-08-23T12:23:50;22.70;99.90
40589;DHT22;26297;49.450;6.640;2022-08-23T12:30:16;22.70;98.70
40589;DHT22;26297;49.450;6.640;2022-08-23T12:40:10;22.60;99.60
40589;DHT22;26297;49.450;6.640;2022-08-23T12:43:26;22.40;98.30
40589;DHT22;26297;49.450;6.640;2022-08-23T12:46:31;22.30;99.50
40589;DHT22;26297;49.450;6.640;2022-08-23T12:49:35;22.30;99.50
40589;DHT22;26297;49.450;6.640;2022-08-23T12:52:39;22.20;99.40
40589;DHT22;26297;49.450;6.640;2022-08-23T12:55:46;22.20;99.90
40589;DHT22;26297;49.450;6.640;2022-08-23T12:58:55;22.30;99.90
40589;DHT22;26297;49.450;6.640;2022-08-23T13:02:02;22.50;99.70
40589;DHT22;26297;49.450;6.640;2022-08-23T13:05:20;22.80;96.20
40589;DHT22;26297;49.450;6.640;2022-08-23T13:11:51;23.10;93.70
40589;DHT22;26297;49.450;6.640;2022-08-23T13:14:54;23.10;97.60
40589;DHT22;26297;49.450;6.640;2022-08-23T13:18:03;23.20;93.60
40589;DHT22;26297;49.450;6.640;2022-08-23T13:21:30;23.20;94.40
40589;DHT22;26297;49.450;6.640;2022-08-23T13:24:37;23.10;95.10
40589;DHT22;26297;49.450;6.640;2022-08-23T13:31:04;22.80;99.90
40589;DHT22;26297;49.450;6.640;2022-08-23T13:34:08;22.80;99.40
40589;DHT22;26297;49.450;6.640;2022-08-23T13:37:27;22.70;98.50
40589;DHT22;26297;49.450;6.640;2022-08-23T13:43:54;22.50;99.90
40589;DHT22;26297;49.450;6.640;2022-08-23T13:46:57;22.40;99.70
40589;DHT22;26297;49.450;6.640;2022-08-23T13:50:01;22.80;99.90
40589;DHT22;26297;49.450;6.640;2022-08-23T13:53:06;22.30;99.90
40589;DHT22;26297;49.450;6.640;2022-08-23T13:56:09;22.30;98.00
40589;DHT22;26297;49.450;6.640;2022-08-23T14:02:28;22.20;99.90
40589;DHT22;26297;49.450;6.640;2022-08-23T14:05:31;22.10;99.90
40589;DHT22;26297;49.450;6.640;2022-08-23T14:08:34;22.10;99.90
40589;DHT22;26297;49.450;6.640;2022-08-23T14:11:37;22.00;99.90
40589;DHT22;26297;49.450;6.640;2022-08-23T14:14:41;22.00;99.90
40589;DHT22;26297;49.450;6.640;2022-08-23T14:17:47;22.10;99.90
40589;DHT22;26297;49.450;6.640;2022-08-23T14:20:50;22.10;99.90
40589;DHT22;26297;49.450;6.640;2022-08-23T14:23:54;22.10;99.80
40589;DHT22;26297;49.450;6.640;2022-08-23T14:27:04;22.10;99.30
40589;DHT22;26297;49.450;6.640;2022-08-23T14:30:31;22.20;98.90
40589;DHT22;26297;49.450;6.640;2022-08-23T14:33:34;22.20;99.20
40589;DHT22;26297;49.450;6.640;2022-08-23T14:36:38;22.20;99.90
40589;DHT22;26297;49.450;6.640;2022-08-23T14:39:41;22.30;98.90
40589;DHT22;26297;49.450;6.640;2022-08-23T14:42:45;22.30;99.90
40589;DHT22;26297;49.450;6.640;2022-08-23T14:45:48;22.50;98.40
40589;DHT22;26297;49.450;6.640;2022-08-23T14:48:52;22.40;97.10
40589;DHT22;26297;49.450;6.640;2022-08-23T14:52:04;22.30;97.60
40589;DHT22;26297;49.450;6.640;2022-08-23T14:55:11;22.30;98.30
40589;DHT22;26297;49.450;6.640;2022-08-23T14:58:16;22.20;98.10
40589;DHT22;26297;49.450;6.640;2022-08-23T15:01:19;22.10;99.90
40589;DHT22;26297;49.450;6.640;2022-08-23T15:04:24;22.10;98.40
40589;DHT22;26297;49.450;6.640;2022-08-23T15:07:27;22.30;99.90
40589;DHT22;26297;49.450;6.640;2022-08-23T15:10:30;22.30;99.90
40589;DHT22;26297;49.450;6.640;2022-08-23T15:13:34;22.70;95.40
40589;DHT22;26297;49.450;6.640;2022-08-23T15:16:38;23.00;92.00
40589;DHT22;26297;49.450;6.640;2022-08-23T15:19:42;23.20;93.20
40589;DHT22;26297;49.450;6.640;2022-08-23T15:22:45;23.20;98.90
40589;DHT22;26297;49.450;6.640;2022-08-23T15:25:49;23.00;95.80
40589;DHT22;26297;49.450;6.640;2022-08-23T15:28:52;22.80;95.70
40589;DHT22;26297;49.450;6.640;2022-08-23T15:31:55;22.80;96.30
40589;DHT22;26297;49.450;6.640;2022-08-23T15:34:58;22.70;95.80
40589;DHT22;26297;49.450;6.640;2022-08-23T15:38:01;22.60;96.60
40589;DHT22;26297;49.450;6.640;2022-08-23T15:41:05;22.50;96.60
40589;DHT22;26297;49.450;6.640;2022-08-23T15:44:09;22.40;97.60
40589;DHT22;26297;49.450;6.640;2022-08-23T15:47:26;22.30;98.40
40589;DHT22;26297;49.450;6.640;2022-08-23T15:50:32;22.30;99.80
40589;DHT22;26297;49.450;6.640;2022-08-23T15:53:37;22.30;98.30
40589;DHT22;26297;49.450;6.640;2022-08-23T15:56:45;22.30;98.20
40589;DHT22;26297;49.450;6.640;2022-08-23T15:59:49;22.20;98.00
40589;DHT22;26297;49.450;6.640;2022-08-23T16:02:53;22.20;98.20
40589;DHT22;26297;49.450;6.640;2022-08-23T16:05:57;22.30;99.90
40589;DHT22;26297;49.450;6.640;2022-08-23T16:09:02;22.20;98.90
40589;DHT22;26297;49.450;6.640;2022-08-23T16:12:06;22.20;98.50
40589;DHT22;26297;49.450;6.640;2022-08-23T16:15:10;22.20;99.90
40589;DHT22;26297;49.450;6.640;2022-08-23T16:18:14;22.30;99.90
40589;DHT22;26297;49.450;6.640;2022-08-23T16:21:18;22.40;99.90
40589;DHT22;26297;49.450;6.640;2022-08-23T16:24:22;22.40;99.90
40589;DHT22;26297;49.450;6.640;2022-08-23T16:27:26;22.50;98.70
40589;DHT22;26297;49.450;6.640;2022-08-23T16:30:30;22.40;99.10
40589;DHT22;26297;49.450;6.640;2022-08-23T16:33:33;22.40;99.90
40589;DHT22;26297;49.450;6.640;2022-08-23T16:36:38;22.40;99.90
40589;DHT22;26297;49.450;6.640;2022-08-23T16:39:41;22.40;99.90
40589;DHT22;26297;49.450;6.640;2022-08-23T16:42:46;22.50;99.90
40589;DHT22;26297;49.450;6.640;2022-08-23T16:45:50;22.60;99.90
40589;DHT22;26297;49.450;6.640;2022-08-23T16:48:52;22.70;99.90
40589;DHT22;26297;49.450;6.640;2022-08-23T16:52:07;22.70;99.90
40589;DHT22;26297;49.450;6.640;2022-08-23T16:55:13;22.70;99.90
40589;DHT22;26297;49.450;6.640;2022-08-23T16:58:16;22.80;99.90
40589;DHT22;26297;49.450;6.640;2022-08-23T17:01:22;22.70;98.50
40589;DHT22;26297;49.450;6.640;2022-08-23T17:04:32;22.60;99.30
40589;DHT22;26297;49.450;6.640;2022-08-23T17:07:35;22.60;99.90
40589;DHT22;26297;49.450;6.640;2022-08-23T17:10:39;22.60;99.90
40589;DHT22;26297;49.450;6.640;2022-08-23T17:13:43;22.60;99.90
40589;DHT22;26297;49.450;6.640;2022-08-23T17:16:49;22.60;99.90
40589;DHT22;26297;49.450;6.640;2022-08-23T17:19:56;22.60;99.90
40589;DHT22;26297;49.450;6.640;2022-08-23T17:23:01;22.60;99.90
40589;DHT22;26297;49.450;6.640;2022-08-23T17:26:10;22.60;99.90
40589;DHT22;26297;49.450;6.640;2022-08-23T17:29:22;22.50;99.90
40589;DHT22;26297;49.450;6.640;2022-08-23T17:32:33;22.40;99.90
40589;DHT22;26297;49.450;6.640;2022-08-23T17:35:36;22.50;99.90
40589;DHT22;26297;49.450;6.640;2022-08-23T17:38:40;22.40;99.90
40589;DHT22;26297;49.450;6.640;2022-08-23T17:41:44;22.30;99.90
40589;DHT22;26297;49.450;6.640;2022-08-23T17:44:50;22.20;99.90
40589;DHT22;26297;49.450;6.640;2022-08-23T17:47:56;22.20;99.90
40589;DHT22;26297;49.450;6.640;2022-08-23T17:51:03;22.20;99.90
40589;DHT22;26297;49.450;6.640;2022-08-23T17:54:12;22.20;99.90
40589;DHT22;26297;49.450;6.640;2022-08-23T17:57:16;22.10;99.90
40589;DHT22;26297;49.450;6.640;2022-08-23T18:00:23;22.10;99.90
40589;DHT22;26297;49.450;6.640;2022-08-23T18:03:26;22.10;99.90
40589;DHT22;26297;49.450;6.640;2022-08-23T18:06:30;22.10;99.90
40589;DHT22;26297;49.450;6.640;2022-08-23T18:09:34;22.10;99.90
40589;DHT22;26297;49.450;6.640;2022-08-23T18:12:38;22.10;99.90
40589;DHT22;26297;49.450;6.640;2022-08-23T18:15:42;22.10;99.90
40589;DHT22;26297;49.450;6.640;2022-08-23T18:18:48;22.10;99.90
40589;DHT22;26297;49.450;6.640;2022-08-23T18:21:52;22.10;99.90
40589;DHT22;26297;49.450;6.640;2022-08-23T18:24:55;22.10;99.90
40589;DHT22;26297;49.450;6.640;2022-08-23T18:27:58;22.10;99.90
40589;DHT22;26297;49.450;6.640;2022-08-23T18:31:13;22.10;99.90
40589;DHT22;26297;49.450;6.640;2022-08-23T18:34:17;22.10;99.90
40589;DHT22;26297;49.450;6.640;2022-08-23T18:37:20;22.10;99.90
40589;DHT22;26297;49.450;6.640;2022-08-23T18:40:25;22.10;99.90
40589;DHT22;26297;49.450;6.640;2022-08-23T18:43:29;22.10;99.90
40589;DHT22;26297;49.450;6.640;2022-08-23T18:46:34;22.10;99.90
40589;DHT22;26297;49.450;6.640;2022-08-23T18:49:38;22.10;99.90
40589;DHT22;26297;49.450;6.640;2022-08-23T18:52:42;22.10;99.90
40589;DHT22;26297;49.450;6.640;2022-08-23T18:55:54;22.00;99.90
40589;DHT22;26297;49.450;6.640;2022-08-23T18:59:01;22.00;99.90
40589;DHT22;26297;49.450;6.640;2022-08-23T19:02:08;22.00;99.90
40589;DHT22;26297;49.450;6.640;2022-08-23T19:05:12;22.10;99.90
40589;DHT22;26297;49.450;6.640;2022-08-23T19:08:15;22.00;99.90
40589;DHT22;26297;49.450;6.640;2022-08-23T19:11:23;22.10;99.90
40589;DHT22;26297;49.450;6.640;2022-08-23T19:14:27;22.10;99.90
40589;DHT22;26297;49.450;6.640;2022-08-23T19:17:31;22.10;99.90
40589;DHT22;26297;49.450;6.640;2022-08-23T19:20:35;22.20;99.90
40589;DHT22;26297;49.450;6.640;2022-08-23T19:23:39;22.20;99.90
40589;DHT22;26297;49.450;6.640;2022-08-23T19:26:43;22.20;99.90
40589;DHT22;26297;49.450;6.640;2022-08-23T19:29:49;22.20;99.90
40589;DHT22;26297;49.450;6.640;2022-08-23T19:32:53;22.30;99.90
40589;DHT22;26297;49.450;6.640;2022-08-23T19:35:57;22.30;99.90
40589;DHT22;26297;49.450;6.640;2022-08-23T19:39:00;22.30;99.90
40589;DHT22;26297;49.450;6.640;2022-08-23T19:42:04;22.30;99.90
40589;DHT22;26297;49.450;6.640;2022-08-23T19:45:08;22.30;99.90
40589;DHT22;26297;49.450;6.640;2022-08-23T20:12:37;22.30;99.90
40589;DHT22;26297;49.450;6.640;2022-08-23T20:25:01;22.40;99.90
40589;DHT22;26297;49.450;6.640;2022-08-23T20:36:25;22.30;99.90
40589;DHT22;26297;49.450;6.640;2022-08-23T20:44:36;22.40;99.90
40589;DHT22;26297;49.450;6.640;2022-08-23T20:48:02;22.00;99.90
40589;DHT22;26297;49.450;6.640;2022-08-23T20:59:29;22.30;99.90
